sensor_id;sensor_type;location;lat;lon;timestamp;temperature;humidity
54178;DHT22;40085;53.004;6.770;2022-12-10T00:01:09;-1.40;99.90
54178;DHT22;40085;53.004;6.770;2022-12-10T00:03:36;-1.40;99.90
54178;DHT22;40085;53.004;6.770;2022-12-10T00:06:03;-1.40;99.90
54178;DHT22;40085;53.004;6.770;2022-12-10T00:08:29;-1.40;99.90
54178;DHT22;40085;53.004;6.770;2022-12-10T00:10:55;-1.40;99.90
54178;DHT22;40085;53.004;6.770;2022-12-10T00:13:20;-1.40;99.90
54178;DHT22;40085;53.004;6.770;2022-12-10T00:15:46;-1.30;99.90
54178;DHT22;40085;53.004;6.770;2022-12-10T00:18:11;-1.30;99.90
54178;DHT22;40085;53.004;6.770;2022-12-10T00:20:37;-1.30;99.90
54178;DHT22;40085;53.004;6.770;2022-12-10T00:23:03;-1.30;99.90
54178;DHT22;40085;53.004;6.770;2022-12-10T00:25:29;-1.20;99.90
54178;DHT22;40085;53.004;6.770;2022-12-10T00:27:55;-1.20;99.90
54178;DHT22;40085;53.004;6.770;2022-12-10T00:30:20;-1.20;99.90
54178;DHT22;40085;53.004;6.770;2022-12-10T00:32:46;-1.20;99.90
54178;DHT22;40085;53.004;6.770;2022-12-10T00:35:11;-1.10;99.90
54178;DHT22;40085;53.004;6.770;2022-12-10T00:37:37;-1.10;99.90
54178;DHT22;40085;53.004;6.770;2022-12-10T00:40:03;-1.20;99.90
54178;DHT22;40085;53.004;6.770;2022-12-10T00:42:30;-1.10;99.90
54178;DHT22;40085;53.004;6.770;2022-12-10T00:44:55;-1.00;99.90
54178;DHT22;40085;53.004;6.770;2022-12-10T00:47:21;-1.00;99.90
54178;DHT22;40085;53.004;6.770;2022-12-10T00:49:46;-1.00;99.90
54178;DHT22;40085;53.004;6.770;2022-12-10T00:52:12;-1.00;99.90
54178;DHT22;40085;53.004;6.770;2022-12-10T00:54:38;-0.90;99.90
54178;DHT22;40085;53.004;6.770;2022-12-10T00:57:03;-0.90;99.90
54178;DHT22;40085;53.004;6.770;2022-12-10T00:59:29;-0.90;99.90
54178;DHT22;40085;53.004;6.770;2022-12-10T01:01:54;-0.90;99.90
54178;DHT22;40085;53.004;6.770;2022-12-10T01:04:20;-0.90;99.90
54178;DHT22;40085;53.004;6.770;2022-12-10T01:06:48;-0.90;99.90
54178;DHT22;40085;53.004;6.770;2022-12-10T01:09:16;-0.90;99.90
54178;DHT22;40085;53.004;6.770;2022-12-10T01:11:44;-0.90;99.90
54178;DHT22;40085;53.004;6.770;2022-12-10T01:14:13;-0.90;99.90
54178;DHT22;40085;53.004;6.770;2022-12-10T01:16:39;-0.90;99.90
54178;DHT22;40085;53.004;6.770;2022-12-10T01:19:05;-0.80;99.90
54178;DHT22;40085;53.004;6.770;2022-12-10T01:21:31;-0.90;99.90
54178;DHT22;40085;53.004;6.770;2022-12-10T01:23:58;-0.90;99.90
54178;DHT22;40085;53.004;6.770;2022-12-10T01:26:26;-1.00;99.90
54178;DHT22;40085;53.004;6.770;2022-12-10T01:28:52;-0.90;99.90
54178;DHT22;40085;53.004;6.770;2022-12-10T01:31:24;-0.90;99.90
54178;DHT22;40085;53.004;6.770;2022-12-10T01:33:50;-1.00;99.90
54178;DHT22;40085;53.004;6.770;2022-12-10T01:38:43;-1.00;99.90
54178;DHT22;40085;53.004;6.770;2022-12-10T01:41:16;-1.00;99.90
54178;DHT22;40085;53.004;6.770;2022-12-10T01:44:00;-1.00;99.90
54178;DHT22;40085;53.004;6.770;2022-12-10T01:46:28;-1.10;99.90
54178;DHT22;40085;53.004;6.770;2022-12-10T01:48:55;-1.00;99.90
54178;DHT22;40085;53.004;6.770;2022-12-10T01:51:22;-1.10;99.90
54178;DHT22;40085;53.004;6.770;2022-12-10T01:53:49;-1.10;99.90
54178;DHT22;40085;53.004;6.770;2022-12-10T01:56:17;-1.10;99.90
54178;DHT22;40085;53.004;6.770;2022-12-10T01:58:43;-1.10;99.90
54178;DHT22;40085;53.004;6.770;2022-12-10T02:01:38;-0.90;99.90
54178;DHT22;40085;53.004;6.770;2022-12-10T02:04:28;-1.00;99.90
54178;DHT22;40085;53.004;6.770;2022-12-10T02:07:07;-1.10;99.90
54178;DHT22;40085;53.004;6.770;2022-12-10T02:09:42;-1.10;99.90
54178;DHT22;40085;53.004;6.770;2022-12-10T02:15:13;-1.10;99.90
54178;DHT22;40085;53.004;6.770;2022-12-10T02:17:45;-1.10;99.90
54178;DHT22;40085;53.004;6.770;2022-12-10T02:23:03;-1.10;99.90
54178;DHT22;40085;53.004;6.770;2022-12-10T02:25:49;-1.20;99.90
54178;DHT22;40085;53.004;6.770;2022-12-10T02:31:00;-1.20;99.90
54178;DHT22;40085;53.004;6.770;2022-12-10T02:33:27;-1.20;99.90
54178;DHT22;40085;53.004;6.770;2022-12-10T02:35:56;-1.30;99.90
54178;DHT22;40085;53.004;6.770;2022-12-10T02:38:27;-1.30;99.90
54178;DHT22;40085;53.004;6.770;2022-12-10T02:41:02;-1.30;99.90
54178;DHT22;40085;53.004;6.770;2022-12-10T02:43:30;-1.30;99.90
54178;DHT22;40085;53.004;6.770;2022-12-10T02:45:57;-1.30;99.90
54178;DHT22;40085;53.004;6.770;2022-12-10T02:48:24;-1.30;99.90
54178;DHT22;40085;53.004;6.770;2022-12-10T02:50:50;-1.40;99.90
54178;DHT22;40085;53.004;6.770;2022-12-10T02:53:16;0.20;99.90
54178;DHT22;40085;53.004;6.770;2022-12-10T03:07:02;-1.40;99.90
54178;DHT22;40085;53.004;6.770;2022-12-10T03:09:38;-1.40;99.90
54178;DHT22;40085;53.004;6.770;2022-12-10T03:12:18;-1.40;99.90
54178;DHT22;40085;53.004;6.770;2022-12-10T03:14:45;-1.40;99.90
54178;DHT22;40085;53.004;6.770;2022-12-10T03:17:12;-1.50;99.90
54178;DHT22;40085;53.004;6.770;2022-12-10T03:19:47;-1.50;99.90
54178;DHT22;40085;53.004;6.770;2022-12-10T03:22:16;-1.50;99.90
54178;DHT22;40085;53.004;6.770;2022-12-10T03:24:43;-1.60;99.90
54178;DHT22;40085;53.004;6.770;2022-12-10T03:27:11;-1.50;99.90
54178;DHT22;40085;53.004;6.770;2022-12-10T03:29:41;-1.60;99.90
54178;DHT22;40085;53.004;6.770;2022-12-10T03:32:09;-1.60;99.90
54178;DHT22;40085;53.004;6.770;2022-12-10T03:34:37;-1.60;99.90
54178;DHT22;40085;53.004;6.770;2022-12-10T03:37:04;-1.60;99.90
54178;DHT22;40085;53.004;6.770;2022-12-10T03:39:30;-1.60;99.90
54178;DHT22;40085;53.004;6.770;2022-12-10T03:41:56;-1.60;99.90
54178;DHT22;40085;53.004;6.770;2022-12-10T03:44:30;-1.70;99.90
54178;DHT22;40085;53.004;6.770;2022-12-10T03:46:56;-1.70;99.90
54178;DHT22;40085;53.004;6.770;2022-12-10T03:49:23;-1.70;99.90
54178;DHT22;40085;53.004;6.770;2022-12-10T03:51:48;-1.80;99.90
54178;DHT22;40085;53.004;6.770;2022-12-10T03:54:14;-1.80;99.90
54178;DHT22;40085;53.004;6.770;2022-12-10T03:56:40;-1.80;99.90
54178;DHT22;40085;53.004;6.770;2022-12-10T03:59:05;-1.80;99.90
54178;DHT22;40085;53.004;6.770;2022-12-10T04:01:31;-1.90;99.90
54178;DHT22;40085;53.004;6.770;2022-12-10T04:03:56;-1.90;99.90
54178;DHT22;40085;53.004;6.770;2022-12-10T04:06:22;-1.90;99.90
54178;DHT22;40085;53.004;6.770;2022-12-10T04:08:48;-1.90;99.90
54178;DHT22;40085;53.004;6.770;2022-12-10T04:11:14;-1.90;99.90
54178;DHT22;40085;53.004;6.770;2022-12-10T04:13:41;-1.90;99.90
54178;DHT22;40085;53.004;6.770;2022-12-10T04:16:25;-2.00;99.90
54178;DHT22;40085;53.004;6.770;2022-12-10T04:19:03;-2.00;99.90
54178;DHT22;40085;53.004;6.770;2022-12-10T04:21:31;-2.00;99.90
54178;DHT22;40085;53.004;6.770;2022-12-10T04:24:18;-2.00;99.90
54178;DHT22;40085;53.004;6.770;2022-12-10T04:27:08;-2.00;99.90
54178;DHT22;40085;53.004;6.770;2022-12-10T04:29:33;-2.00;99.90
54178;DHT22;40085;53.004;6.770;2022-12-10T04:31:59;-2.10;99.90
54178;DHT22;40085;53.004;6.770;2022-12-10T04:34:25;-2.10;99.90
54178;DHT22;40085;53.004;6.770;2022-12-10T04:36:51;-2.40;99.90
54178;DHT22;40085;53.004;6.770;2022-12-10T04:39:17;-2.10;99.90
54178;DHT22;40085;53.004;6.770;2022-12-10T04:41:45;-2.10;99.90
54178;DHT22;40085;53.004;6.770;2022-12-10T04:44:11;-2.10;99.90
54178;DHT22;40085;53.004;6.770;2022-12-10T04:46:37;-2.00;99.90
54178;DHT22;40085;53.004;6.770;2022-12-10T04:49:04;-2.10;99.90
54178;DHT22;40085;53.004;6.770;2022-12-10T04:51:29;-2.10;99.90
54178;DHT22;40085;53.004;6.770;2022-12-10T04:53:55;-2.10;99.90
54178;DHT22;40085;53.004;6.770;2022-12-10T04:56:21;-2.10;99.90
54178;DHT22;40085;53.004;6.770;2022-12-10T04:58:46;-2.10;99.90
54178;DHT22;40085;53.004;6.770;2022-12-10T05:01:12;-2.10;99.90
54178;DHT22;40085;53.004;6.770;2022-12-10T05:03:38;-2.10;99.90
54178;DHT22;40085;53.004;6.770;2022-12-10T05:06:07;-2.20;99.90
54178;DHT22;40085;53.004;6.770;2022-12-10T05:08:34;-2.20;99.90
54178;DHT22;40085;53.004;6.770;2022-12-10T05:11:01;-2.20;99.90
54178;DHT22;40085;53.004;6.770;2022-12-10T05:13:27;-2.20;99.90
54178;DHT22;40085;53.004;6.770;2022-12-10T05:15:53;-2.20;99.90
54178;DHT22;40085;53.004;6.770;2022-12-10T05:18:19;-2.20;99.90
54178;DHT22;40085;53.004;6.770;2022-12-10T05:20:44;-0.90;99.90
54178;DHT22;40085;53.004;6.770;2022-12-10T05:23:10;-2.30;99.90
54178;DHT22;40085;53.004;6.770;2022-12-10T05:26:23;-2.30;99.90
54178;DHT22;40085;53.004;6.770;2022-12-10T05:28:52;-2.30;99.90
54178;DHT22;40085;53.004;6.770;2022-12-10T05:31:21;-2.30;99.90
54178;DHT22;40085;53.004;6.770;2022-12-10T05:33:48;-2.40;99.90
54178;DHT22;40085;53.004;6.770;2022-12-10T05:36:16;-2.40;99.90
54178;DHT22;40085;53.004;6.770;2022-12-10T05:38:42;-2.40;99.90
54178;DHT22;40085;53.004;6.770;2022-12-10T05:41:14;-2.40;99.90
54178;DHT22;40085;53.004;6.770;2022-12-10T05:43:41;-2.40;99.90
54178;DHT22;40085;53.004;6.770;2022-12-10T05:46:11;-2.40;99.90
54178;DHT22;40085;53.004;6.770;2022-12-10T05:48:37;-2.40;99.90
54178;DHT22;40085;53.004;6.770;2022-12-10T05:51:07;-2.40;99.90
54178;DHT22;40085;53.004;6.770;2022-12-10T05:53:34;-2.40;99.90
54178;DHT22;40085;53.004;6.770;2022-12-10T05:56:02;-2.50;99.90
54178;DHT22;40085;53.004;6.770;2022-12-10T05:58:28;-2.50;99.90
54178;DHT22;40085;53.004;6.770;2022-12-10T06:00:55;-2.40;99.90
54178;DHT22;40085;53.004;6.770;2022-12-10T06:03:21;-2.40;99.90
54178;DHT22;40085;53.004;6.770;2022-12-10T06:05:46;-2.40;99.90
54178;DHT22;40085;53.004;6.770;2022-12-10T06:08:12;-2.40;99.90
54178;DHT22;40085;53.004;6.770;2022-12-10T06:10:38;-2.50;99.90
54178;DHT22;40085;53.004;6.770;2022-12-10T06:13:04;-2.50;99.90
54178;DHT22;40085;53.004;6.770;2022-12-10T06:15:30;-2.50;99.90
54178;DHT22;40085;53.004;6.770;2022-12-10T06:17:56;-2.40;99.90
54178;DHT22;40085;53.004;6.770;2022-12-10T06:20:23;-2.40;99.90
54178;DHT22;40085;53.004;6.770;2022-12-10T06:22:48;-2.40;99.90
54178;DHT22;40085;53.004;6.770;2022-12-10T06:25:14;-2.40;99.90
54178;DHT22;40085;53.004;6.770;2022-12-10T06:27:40;-2.40;99.90
54178;DHT22;40085;53.004;6.770;2022-12-10T06:30:06;-2.40;99.90
54178;DHT22;40085;53.004;6.770;2022-12-10T06:32:32;-2.40;99.90
54178;DHT22;40085;53.004;6.770;2022-12-10T06:34:57;-2.40;99.90
54178;DHT22;40085;53.004;6.770;2022-12-10T06:37:23;-2.40;99.90
54178;DHT22;40085;53.004;6.770;2022-12-10T06:39:53;-2.30;99.90
54178;DHT22;40085;53.004;6.770;2022-12-10T06:42:19;-2.40;99.90
54178;DHT22;40085;53.004;6.770;2022-12-10T06:44:45;-2.40;99.90
54178;DHT22;40085;53.004;6.770;2022-12-10T06:47:11;-2.40;99.90
54178;DHT22;40085;53.004;6.770;2022-12-10T06:49:36;-2.40;99.90
54178;DHT22;40085;53.004;6.770;2022-12-10T06:52:03;-2.40;99.90
54178;DHT22;40085;53.004;6.770;2022-12-10T06:54:29;-2.40;99.90
54178;DHT22;40085;53.004;6.770;2022-12-10T06:56:55;-2.40;99.90
54178;DHT22;40085;53.004;6.770;2022-12-10T06:59:21;-2.40;99.90
54178;DHT22;40085;53.004;6.770;2022-12-10T07:01:46;-2.40;99.90
54178;DHT22;40085;53.004;6.770;2022-12-10T07:04:12;-2.40;99.90
54178;DHT22;40085;53.004;6.770;2022-12-10T07:06:39;-2.40;99.90
54178;DHT22;40085;53.004;6.770;2022-12-10T07:09:04;-2.40;99.90
54178;DHT22;40085;53.004;6.770;2022-12-10T07:11:30;-2.30;99.90
54178;DHT22;40085;53.004;6.770;2022-12-10T07:13:57;-2.50;99.90
54178;DHT22;40085;53.004;6.770;2022-12-10T07:16:26;-2.50;99.90
54178;DHT22;40085;53.004;6.770;2022-12-10T07:18:53;-2.50;99.90
54178;DHT22;40085;53.004;6.770;2022-12-10T07:21:28;-2.50;99.90
54178;DHT22;40085;53.004;6.770;2022-12-10T07:23:56;-2.50;99.90
54178;DHT22;40085;53.004;6.770;2022-12-10T07:26:28;-2.50;99.90
54178;DHT22;40085;53.004;6.770;2022-12-10T07:28:54;-2.50;99.90
54178;DHT22;40085;53.004;6.770;2022-12-10T07:31:21;-2.50;99.90
54178;DHT22;40085;53.004;6.770;2022-12-10T07:33:47;-2.50;99.90
54178;DHT22;40085;53.004;6.770;2022-12-10T07:36:13;-2.50;99.90
54178;DHT22;40085;53.004;6.770;2022-12-10T07:38:39;-2.50;99.90
54178;DHT22;40085;53.004;6.770;2022-12-10T07:41:08;-2.50;99.90
54178;DHT22;40085;53.004;6.770;2022-12-10T07:43:35;-2.50;99.90
54178;DHT22;40085;53.004;6.770;2022-12-10T07:46:11;-2.50;99.90
54178;DHT22;40085;53.004;6.770;2022-12-10T07:48:38;-1.40;99.90
54178;DHT22;40085;53.004;6.770;2022-12-10T07:51:04;-2.50;99.90
54178;DHT22;40085;53.004;6.770;2022-12-10T07:53:30;-2.50;99.90
54178;DHT22;40085;53.004;6.770;2022-12-10T07:55:56;-2.50;99.90
54178;DHT22;40085;53.004;6.770;2022-12-10T07:58:22;-2.50;99.90
54178;DHT22;40085;53.004;6.770;2022-12-10T08:00:48;-2.50;99.90
54178;DHT22;40085;53.004;6.770;2022-12-10T08:03:14;-2.50;99.90
54178;DHT22;40085;53.004;6.770;2022-12-10T08:05:39;-2.50;99.90
54178;DHT22;40085;53.004;6.770;2022-12-10T08:08:05;-2.50;99.90
54178;DHT22;40085;53.004;6.770;2022-12-10T08:10:34;-2.50;99.90
54178;DHT22;40085;53.004;6.770;2022-12-10T08:12:59;-2.50;99.90
54178;DHT22;40085;53.004;6.770;2022-12-10T08:15:25;-2.50;99.90
54178;DHT22;40085;53.004;6.770;2022-12-10T08:17:51;-2.40;99.90
54178;DHT22;40085;53.004;6.770;2022-12-10T08:20:16;-2.40;99.90
54178;DHT22;40085;53.004;6.770;2022-12-10T08:22:42;-2.40;99.90
54178;DHT22;40085;53.004;6.770;2022-12-10T08:25:07;-2.40;99.90
54178;DHT22;40085;53.004;6.770;2022-12-10T08:27:33;-1.10;99.90
54178;DHT22;40085;53.004;6.770;2022-12-10T08:29:58;-2.40;99.90
54178;DHT22;40085;53.004;6.770;2022-12-10T08:32:24;-2.40;99.90
54178;DHT22;40085;53.004;6.770;2022-12-10T08:34:50;-2.40;99.90
54178;DHT22;40085;53.004;6.770;2022-12-10T08:37:15;-2.40;99.90
54178;DHT22;40085;53.004;6.770;2022-12-10T08:39:41;-2.30;99.90
54178;DHT22;40085;53.004;6.770;2022-12-10T08:42:06;-2.30;99.90
54178;DHT22;40085;53.004;6.770;2022-12-10T08:44:32;-2.30;99.90
54178;DHT22;40085;53.004;6.770;2022-12-10T08:46:58;-2.30;99.90
54178;DHT22;40085;53.004;6.770;2022-12-10T08:49:23;-2.30;99.90
54178;DHT22;40085;53.004;6.770;2022-12-10T08:51:49;-2.20;99.90
54178;DHT22;40085;53.004;6.770;2022-12-10T08:54:14;-2.20;99.90
54178;DHT22;40085;53.004;6.770;2022-12-10T08:56:40;-2.10;99.90
54178;DHT22;40085;53.004;6.770;2022-12-10T08:59:06;-2.10;99.90
54178;DHT22;40085;53.004;6.770;2022-12-10T09:01:32;-2.00;99.90
54178;DHT22;40085;53.004;6.770;2022-12-10T09:03:58;-2.00;99.90
54178;DHT22;40085;53.004;6.770;2022-12-10T09:06:24;-1.90;99.90
54178;DHT22;40085;53.004;6.770;2022-12-10T09:08:50;-1.90;99.90
54178;DHT22;40085;53.004;6.770;2022-12-10T09:11:27;-1.80;99.90
54178;DHT22;40085;53.004;6.770;2022-12-10T09:13:53;-1.80;99.90
54178;DHT22;40085;53.004;6.770;2022-12-10T09:16:19;-1.70;99.90
54178;DHT22;40085;53.004;6.770;2022-12-10T09:18:45;-1.70;99.90
54178;DHT22;40085;53.004;6.770;2022-12-10T09:21:13;-1.60;99.90
54178;DHT22;40085;53.004;6.770;2022-12-10T09:23:40;-1.60;99.90
54178;DHT22;40085;53.004;6.770;2022-12-10T09:26:12;-1.50;99.90
54178;DHT22;40085;53.004;6.770;2022-12-10T09:28:38;-1.40;99.90
54178;DHT22;40085;53.004;6.770;2022-12-10T09:31:05;-1.30;99.90
54178;DHT22;40085;53.004;6.770;2022-12-10T09:33:31;-1.20;99.90
54178;DHT22;40085;53.004;6.770;2022-12-10T09:35:57;-1.10;99.90
54178;DHT22;40085;53.004;6.770;2022-12-10T09:38:23;-1.00;99.90
54178;DHT22;40085;53.004;6.770;2022-12-10T09:43:55;-1.00;99.90
54178;DHT22;40085;53.004;6.770;2022-12-10T09:46:41;-1.00;99.90
54178;DHT22;40085;53.004;6.770;2022-12-10T09:49:33;-1.00;99.90
54178;DHT22;40085;53.004;6.770;2022-12-10T09:52:05;-0.90;99.90
54178;DHT22;40085;53.004;6.770;2022-12-10T09:54:34;-0.90;99.90
54178;DHT22;40085;53.004;6.770;2022-12-10T09:57:04;-0.80;99.90
54178;DHT22;40085;53.004;6.770;2022-12-10T09:59:35;-0.80;99.90
54178;DHT22;40085;53.004;6.770;2022-12-10T10:04:47;-0.10;99.90
54178;DHT22;40085;53.004;6.770;2022-12-10T10:07:21;-0.60;99.90
54178;DHT22;40085;53.004;6.770;2022-12-10T10:09:48;-0.50;99.90
54178;DHT22;40085;53.004;6.770;2022-12-10T10:12:14;-0.50;99.90
54178;DHT22;40085;53.004;6.770;2022-12-10T10:14:42;-0.50;99.90
54178;DHT22;40085;53.004;6.770;2022-12-10T10:17:33;-0.70;99.90
54178;DHT22;40085;53.004;6.770;2022-12-10T10:19:57;-0.50;99.90
54178;DHT22;40085;53.004;6.770;2022-12-10T10:22:22;-0.60;99.90
54178;DHT22;40085;53.004;6.770;2022-12-10T10:24:48;-0.50;99.90
54178;DHT22;40085;53.004;6.770;2022-12-10T10:27:17;-0.50;99.90
54178;DHT22;40085;53.004;6.770;2022-12-10T10:29:48;-0.50;99.90
54178;DHT22;40085;53.004;6.770;2022-12-10T10:32:17;-0.60;99.90
54178;DHT22;40085;53.004;6.770;2022-12-10T10:34:45;-0.60;99.90
54178;DHT22;40085;53.004;6.770;2022-12-10T10:37:23;-0.60;99.90
54178;DHT22;40085;53.004;6.770;2022-12-10T10:39:51;-0.30;99.90
54178;DHT22;40085;53.004;6.770;2022-12-10T10:42:42;-0.60;99.90
54178;DHT22;40085;53.004;6.770;2022-12-10T10:50:29;-0.70;99.90
54178;DHT22;40085;53.004;6.770;2022-12-10T10:52:55;-0.50;99.90
54178;DHT22;40085;53.004;6.770;2022-12-10T10:55:31;-0.60;99.90
54178;DHT22;40085;53.004;6.770;2022-12-10T10:58:01;-0.30;99.90
54178;DHT22;40085;53.004;6.770;2022-12-10T11:00:27;-0.60;99.90
54178;DHT22;40085;53.004;6.770;2022-12-10T11:02:53;-0.40;99.90
54178;DHT22;40085;53.004;6.770;2022-12-10T11:05:26;-0.60;99.90
54178;DHT22;40085;53.004;6.770;2022-12-10T11:08:04;-0.30;99.90
54178;DHT22;40085;53.004;6.770;2022-12-10T11:10:30;-0.50;99.90
54178;DHT22;40085;53.004;6.770;2022-12-10T11:13:14;-0.60;99.90
54178;DHT22;40085;53.004;6.770;2022-12-10T11:15:43;-0.40;99.90
54178;DHT22;40085;53.004;6.770;2022-12-10T11:21:05;-0.50;99.90
54178;DHT22;40085;53.004;6.770;2022-12-10T11:23:37;-0.20;99.90
54178;DHT22;40085;53.004;6.770;2022-12-10T11:29:07;-0.40;99.90
54178;DHT22;40085;53.004;6.770;2022-12-10T11:31:46;-0.30;99.90
54178;DHT22;40085;53.004;6.770;2022-12-10T11:34:45;-0.30;99.90
54178;DHT22;40085;53.004;6.770;2022-12-10T11:45:28;-0.30;99.90
54178;DHT22;40085;53.004;6.770;2022-12-10T11:48:09;-0.20;99.90
54178;DHT22;40085;53.004;6.770;2022-12-10T11:50:43;-0.20;99.90
54178;DHT22;40085;53.004;6.770;2022-12-10T12:06:48;-0.20;99.90
54178;DHT22;40085;53.004;6.770;2022-12-10T12:15:01;-0.20;99.90
54178;DHT22;40085;53.004;6.770;2022-12-10T12:17:31;-0.20;99.90
54178;DHT22;40085;53.004;6.770;2022-12-10T12:20:02;-0.20;99.90
54178;DHT22;40085;53.004;6.770;2022-12-10T12:22:35;-0.30;99.90
54178;DHT22;40085;53.004;6.770;2022-12-10T12:25:09;-0.20;99.90
54178;DHT22;40085;53.004;6.770;2022-12-10T12:27:55;-0.20;99.90
54178;DHT22;40085;53.004;6.770;2022-12-10T12:30:22;-0.30;99.90
54178;DHT22;40085;53.004;6.770;2022-12-10T12:35:20;-0.30;99.90
54178;DHT22;40085;53.004;6.770;2022-12-10T12:38:28;-0.30;99.90
54178;DHT22;40085;53.004;6.770;2022-12-10T12:41:06;-0.30;99.90
54178;DHT22;40085;53.004;6.770;2022-12-10T12:46:12;-0.40;99.90
54178;DHT22;40085;53.004;6.770;2022-12-10T12:48:51;-0.40;99.90
54178;DHT22;40085;53.004;6.770;2022-12-10T12:51:33;-0.50;99.90
54178;DHT22;40085;53.004;6.770;2022-12-10T12:54:00;-0.50;99.90
54178;DHT22;40085;53.004;6.770;2022-12-10T12:56:36;-0.50;99.90
54178;DHT22;40085;53.004;6.770;2022-12-10T12:59:35;-0.50;99.90
54178;DHT22;40085;53.004;6.770;2022-12-10T13:02:18;-0.50;99.90
54178;DHT22;40085;53.004;6.770;2022-12-10T13:04:45;-0.40;99.90
54178;DHT22;40085;53.004;6.770;2022-12-10T13:09:52;-0.40;99.90
54178;DHT22;40085;53.004;6.770;2022-12-10T13:12:52;-0.40;99.90
54178;DHT22;40085;53.004;6.770;2022-12-10T13:15:38;-0.40;99.90
54178;DHT22;40085;53.004;6.770;2022-12-10T13:18:20;-0.40;99.90
54178;DHT22;40085;53.004;6.770;2022-12-10T13:23:52;-0.40;99.90
54178;DHT22;40085;53.004;6.770;2022-12-10T13:26:31;-0.40;99.90
54178;DHT22;40085;53.004;6.770;2022-12-10T13:29:25;-0.30;99.90
54178;DHT22;40085;53.004;6.770;2022-12-10T13:32:03;-0.40;99.90
54178;DHT22;40085;53.004;6.770;2022-12-10T13:34:36;-0.30;99.90
54178;DHT22;40085;53.004;6.770;2022-12-10T13:42:36;-0.30;99.90
54178;DHT22;40085;53.004;6.770;2022-12-10T13:47:49;-0.30;99.90
54178;DHT22;40085;53.004;6.770;2022-12-10T13:53:19;-0.30;99.90
54178;DHT22;40085;53.004;6.770;2022-12-10T14:04:49;-0.20;99.90
54178;DHT22;40085;53.004;6.770;2022-12-10T14:07:20;-0.10;99.90
54178;DHT22;40085;53.004;6.770;2022-12-10T14:09:57;-0.20;99.90
54178;DHT22;40085;53.004;6.770;2022-12-10T14:12:32;-0.20;99.90
54178;DHT22;40085;53.004;6.770;2022-12-10T14:15:02;-0.20;99.90
54178;DHT22;40085;53.004;6.770;2022-12-10T14:17:34;-0.20;99.90
54178;DHT22;40085;53.004;6.770;2022-12-10T14:20:04;-0.20;99.90
54178;DHT22;40085;53.004;6.770;2022-12-10T14:25:04;-0.20;99.90
54178;DHT22;40085;53.004;6.770;2022-12-10T14:27:32;-0.20;99.90
54178;DHT22;40085;53.004;6.770;2022-12-10T14:30:22;-0.20;99.90
54178;DHT22;40085;53.004;6.770;2022-12-10T14:32:49;-0.20;99.90
54178;DHT22;40085;53.004;6.770;2022-12-10T14:35:26;-0.20;99.90
54178;DHT22;40085;53.004;6.770;2022-12-10T14:37:55;-0.20;99.90
54178;DHT22;40085;53.004;6.770;2022-12-10T14:40:42;-0.30;99.90
54178;DHT22;40085;53.004;6.770;2022-12-10T14:43:18;-0.30;99.90
54178;DHT22;40085;53.004;6.770;2022-12-10T14:48:17;-0.20;99.90
54178;DHT22;40085;53.004;6.770;2022-12-10T14:50:44;-0.30;99.90
54178;DHT22;40085;53.004;6.770;2022-12-10T14:53:22;-0.30;99.90
54178;DHT22;40085;53.004;6.770;2022-12-10T14:55:52;-0.30;99.90
54178;DHT22;40085;53.004;6.770;2022-12-10T14:58:30;-0.30;99.90
54178;DHT22;40085;53.004;6.770;2022-12-10T15:00:57;-0.30;99.90
54178;DHT22;40085;53.004;6.770;2022-12-10T15:03:29;-0.30;99.90
54178;DHT22;40085;53.004;6.770;2022-12-10T15:06:02;-0.40;99.90
54178;DHT22;40085;53.004;6.770;2022-12-10T15:08:32;-0.40;99.90
54178;DHT22;40085;53.004;6.770;2022-12-10T15:11:01;-0.40;99.90
54178;DHT22;40085;53.004;6.770;2022-12-10T15:13:35;-0.40;99.90
54178;DHT22;40085;53.004;6.770;2022-12-10T15:16:03;-0.40;99.90
54178;DHT22;40085;53.004;6.770;2022-12-10T15:18:33;-0.40;99.90
54178;DHT22;40085;53.004;6.770;2022-12-10T15:21:09;-0.40;99.90
54178;DHT22;40085;53.004;6.770;2022-12-10T15:23:36;-0.50;99.90
54178;DHT22;40085;53.004;6.770;2022-12-10T15:26:21;-0.40;99.90
54178;DHT22;40085;53.004;6.770;2022-12-10T15:28:49;-0.40;99.90
54178;DHT22;40085;53.004;6.770;2022-12-10T15:31:30;-0.40;99.90
54178;DHT22;40085;53.004;6.770;2022-12-10T15:33:57;-0.50;99.90
54178;DHT22;40085;53.004;6.770;2022-12-10T15:36:36;-0.40;99.90
54178;DHT22;40085;53.004;6.770;2022-12-10T15:41:54;-0.40;99.90
54178;DHT22;40085;53.004;6.770;2022-12-10T15:44:32;-0.40;99.90
54178;DHT22;40085;53.004;6.770;2022-12-10T15:47:12;-0.40;99.90
54178;DHT22;40085;53.004;6.770;2022-12-10T15:49:40;-0.40;99.90
54178;DHT22;40085;53.004;6.770;2022-12-10T15:52:08;-0.40;99.90
54178;DHT22;40085;53.004;6.770;2022-12-10T15:54:38;-0.40;99.90
54178;DHT22;40085;53.004;6.770;2022-12-10T15:57:28;-0.40;99.90
54178;DHT22;40085;53.004;6.770;2022-12-10T15:59:56;-0.40;99.90
54178;DHT22;40085;53.004;6.770;2022-12-10T16:05:00;-0.40;99.90
54178;DHT22;40085;53.004;6.770;2022-12-10T16:07:26;-0.40;99.90
54178;DHT22;40085;53.004;6.770;2022-12-10T16:09:52;0.00;99.90
54178;DHT22;40085;53.004;6.770;2022-12-10T16:12:18;-0.40;99.90
54178;DHT22;40085;53.004;6.770;2022-12-10T16:14:51;-0.40;99.90
54178;DHT22;40085;53.004;6.770;2022-12-10T16:17:18;-0.40;99.90
54178;DHT22;40085;53.004;6.770;2022-12-10T16:19:44;-0.30;99.90
54178;DHT22;40085;53.004;6.770;2022-12-10T16:22:10;-0.40;99.90
54178;DHT22;40085;53.004;6.770;2022-12-10T16:24:36;-0.40;99.90
54178;DHT22;40085;53.004;6.770;2022-12-10T16:27:04;-0.40;99.90
54178;DHT22;40085;53.004;6.770;2022-12-10T16:29:30;-0.40;99.90
54178;DHT22;40085;53.004;6.770;2022-12-10T16:31:55;-0.30;99.90
54178;DHT22;40085;53.004;6.770;2022-12-10T16:34:21;-0.30;99.90
54178;DHT22;40085;53.004;6.770;2022-12-10T16:36:46;-0.40;99.90
54178;DHT22;40085;53.004;6.770;2022-12-10T16:39:12;-0.30;99.90
54178;DHT22;40085;53.004;6.770;2022-12-10T16:41:39;-0.40;99.90
54178;DHT22;40085;53.004;6.770;2022-12-10T16:44:05;-0.40;99.90
54178;DHT22;40085;53.004;6.770;2022-12-10T16:46:30;-0.40;99.90
54178;DHT22;40085;53.004;6.770;2022-12-10T16:48:56;-0.40;99.90
54178;DHT22;40085;53.004;6.770;2022-12-10T16:51:24;-0.40;99.90
54178;DHT22;40085;53.004;6.770;2022-12-10T16:53:51;-0.40;99.90
54178;DHT22;40085;53.004;6.770;2022-12-10T16:56:17;-0.40;99.90
54178;DHT22;40085;53.004;6.770;2022-12-10T16:58:43;-0.40;99.90
54178;DHT22;40085;53.004;6.770;2022-12-10T17:01:24;-0.40;99.90
54178;DHT22;40085;53.004;6.770;2022-12-10T17:03:53;0.00;99.90
54178;DHT22;40085;53.004;6.770;2022-12-10T17:06:20;-0.50;99.90
54178;DHT22;40085;53.004;6.770;2022-12-10T17:08:46;-0.50;99.90
54178;DHT22;40085;53.004;6.770;2022-12-10T17:13:58;-0.50;99.90
54178;DHT22;40085;53.004;6.770;2022-12-10T17:16:24;-0.60;99.90
54178;DHT22;40085;53.004;6.770;2022-12-10T17:18:50;-0.60;99.90
54178;DHT22;40085;53.004;6.770;2022-12-10T17:21:15;-0.60;99.90
54178;DHT22;40085;53.004;6.770;2022-12-10T17:23:41;-0.60;99.90
54178;DHT22;40085;53.004;6.770;2022-12-10T17:26:08;-0.70;99.90
54178;DHT22;40085;53.004;6.770;2022-12-10T17:28:41;-0.70;99.90
54178;DHT22;40085;53.004;6.770;2022-12-10T17:31:06;-0.70;99.90
54178;DHT22;40085;53.004;6.770;2022-12-10T17:33:32;-0.70;99.90
54178;DHT22;40085;53.004;6.770;2022-12-10T17:35:57;-0.70;99.90